createdAt,value
2018-06-17T00:00:49.606Z,18.20
2018-06-17T00:03:19.955Z,18.18
2018-06-17T00:05:50.324Z,18.13
2018-06-17T00:08:20.236Z,18.04
2018-06-17T00:10:50.150Z,17.90
2018-06-17T00:13:24.991Z,17.82
2018-06-17T00:15:54.866Z,17.78
2018-06-17T00:18:24.818Z,17.83
2018-06-17T00:21:02.848Z,17.84
2018-06-17T00:23:33.604Z,17.70
2018-06-17T00:26:03.683Z,17.78
2018-06-17T00:28:33.951Z,17.62
2018-06-17T00:31:03.864Z,17.57
2018-06-17T00:33:33.786Z,17.51
2018-06-17T00:36:09.216Z,17.60
2018-06-17T00:38:39.160Z,17.51
2018-06-17T00:41:09.158Z,17.38
2018-06-17T00:43:39.526Z,17.30
2018-06-17T00:46:09.663Z,17.24
2018-06-17T00:48:39.578Z,17.26
2018-06-17T00:51:09.728Z,17.26
2018-06-17T00:53:39.651Z,17.32
2018-06-17T00:56:09.668Z,17.33
2018-06-17T00:58:40.962Z,17.32
2018-06-17T01:01:10.914Z,17.40
2018-06-17T01:03:41.044Z,17.35
2018-06-17T01:06:11.526Z,17.36
2018-06-17T01:08:41.484Z,17.33
2018-06-17T01:11:11.649Z,17.43
2018-06-17T01:13:56.063Z,17.26
2018-06-17T01:16:25.997Z,17.19
2018-06-17T01:18:56.226Z,17.16
2018-06-17T01:21:26.575Z,17.12
2018-06-17T01:23:56.953Z,17.12
2018-06-17T01:26:26.974Z,17.08
2018-06-17T01:29:00.919Z,17.07
2018-06-17T01:31:30.888Z,17.04
2018-06-17T01:34:00.874Z,17.04
2018-06-17T01:36:30.814Z,17.01
2018-06-17T01:39:01.025Z,16.97
2018-06-17T01:41:30.969Z,16.88
2018-06-17T01:44:00.874Z,16.87
2018-06-17T01:46:31.205Z,16.91
2018-06-17T01:49:30.962Z,16.86
2018-06-17T01:52:00.970Z,16.82
2018-06-17T01:54:31.259Z,16.95
2018-06-17T01:57:01.215Z,16.96
2018-06-17T01:59:31.117Z,16.94
2018-06-17T02:02:19.679Z,17.02
2018-06-17T02:04:55.164Z,16.95
2018-06-17T02:07:33.953Z,16.91
2018-06-17T02:12:57.674Z,16.92
2018-06-17T02:15:31.075Z,16.92
2018-06-17T02:18:01.913Z,16.92
2018-06-17T02:20:32.129Z,16.91
2018-06-17T02:23:03.776Z,16.91
2018-06-17T02:25:33.754Z,16.83
2018-06-17T02:30:10.986Z,16.86
2018-06-17T02:32:43.157Z,16.84
2018-06-17T02:35:16.620Z,16.99
2018-06-17T02:37:51.610Z,16.97
2018-06-17T02:40:21.716Z,16.94
2018-06-17T02:42:51.634Z,16.96
2018-06-17T02:45:28.249Z,17.00
2018-06-17T02:48:04.952Z,16.98
2018-06-17T02:53:40.984Z,16.96
2018-06-17T02:56:11.089Z,16.97
2018-06-17T02:58:41.169Z,16.96
2018-06-17T03:01:11.198Z,16.96
2018-06-17T03:03:41.155Z,16.89
2018-06-17T03:06:11.202Z,16.83
2018-06-17T03:08:47.720Z,16.91
2018-06-17T03:11:17.672Z,16.81
2018-06-17T03:13:47.633Z,16.79
2018-06-17T03:20:24.726Z,16.67
2018-06-17T03:22:54.636Z,16.70
2018-06-17T03:25:36.466Z,16.73
2018-06-17T03:28:11.420Z,16.91
2018-06-17T03:30:47.884Z,16.83
2018-06-17T03:36:10.921Z,16.84
2018-06-17T03:41:59.076Z,16.84
2018-06-17T03:44:29.625Z,16.82
2018-06-17T03:47:01.515Z,16.83
2018-06-17T03:49:31.507Z,16.86
2018-06-17T03:52:01.653Z,16.94
2018-06-17T03:54:31.671Z,16.95
2018-06-17T03:57:03.149Z,16.97
2018-06-17T03:59:33.194Z,16.99
2018-06-17T04:02:03.156Z,17.03
2018-06-17T04:04:37.128Z,16.93
2018-06-17T04:07:07.016Z,16.94
2018-06-17T04:09:37.058Z,16.95
2018-06-17T04:12:09.020Z,16.95
2018-06-17T04:14:38.939Z,17.02
2018-06-17T04:17:14.482Z,17.05
2018-06-17T04:19:46.984Z,17.24
2018-06-17T04:22:23.690Z,17.45
2018-06-17T04:24:54.528Z,17.61
2018-06-17T04:27:24.569Z,17.67
2018-06-17T04:29:54.409Z,17.65
2018-06-17T04:32:24.398Z,17.61
2018-06-17T04:34:54.312Z,17.58
2018-06-17T04:37:27.862Z,17.53
2018-06-17T04:39:57.826Z,17.48
2018-06-17T04:42:27.742Z,17.48
2018-06-17T04:44:57.670Z,17.41
2018-06-17T04:47:29.922Z,17.45
2018-06-17T04:49:59.860Z,17.41
2018-06-17T04:52:30.021Z,17.41
2018-06-17T04:55:00.271Z,17.46
2018-06-17T04:57:30.158Z,17.43
2018-06-17T05:00:00.155Z,17.50
2018-06-17T05:02:30.053Z,17.59
2018-06-17T05:05:01.298Z,17.65
2018-06-17T05:07:49.210Z,17.72
2018-06-17T05:10:19.101Z,17.79
2018-06-17T05:12:53.776Z,17.80
2018-06-17T05:15:23.696Z,17.88
2018-06-17T05:17:53.710Z,17.87
2018-06-17T05:20:25.140Z,17.80
2018-06-17T05:22:55.280Z,17.78
2018-06-17T05:25:25.242Z,17.78
2018-06-17T05:27:56.881Z,17.61
2018-06-17T05:30:26.810Z,17.65
2018-06-17T05:32:56.956Z,17.61
2018-06-17T05:35:31.736Z,17.53
2018-06-17T05:38:01.630Z,17.50
2018-06-17T05:40:31.649Z,17.51
2018-06-17T05:43:01.553Z,17.43
2018-06-17T05:45:31.469Z,17.40
2018-06-17T05:48:01.427Z,17.38
2018-06-17T05:50:36.326Z,17.37
2018-06-17T05:53:06.249Z,17.30
2018-06-17T05:55:36.252Z,17.30
2018-06-17T05:58:06.603Z,17.28
2018-06-17T06:00:36.593Z,17.28
2018-06-17T06:09:12.434Z,17.32
2018-06-17T06:11:43.356Z,17.28
2018-06-17T06:14:13.805Z,17.38
2018-06-17T06:16:58.078Z,17.37
2018-06-17T06:19:37.347Z,17.42
2018-06-17T06:25:08.932Z,17.41
2018-06-17T06:27:39.048Z,17.49
2018-06-17T06:30:09.263Z,17.51
2018-06-17T06:32:39.179Z,17.59
2018-06-17T06:35:09.550Z,17.63
2018-06-17T06:38:27.486Z,17.65
2018-06-17T06:41:07.241Z,17.75
2018-06-17T06:43:37.316Z,17.92
2018-06-17T06:46:07.423Z,17.95
2018-06-17T06:48:37.759Z,18.03
2018-06-17T06:51:07.795Z,18.09
2018-06-17T06:53:37.680Z,18.14
2018-06-17T06:56:09.202Z,18.23
2018-06-17T06:58:39.151Z,18.29
2018-06-17T07:01:09.077Z,18.36
2018-06-17T07:03:51.799Z,18.53
2018-06-17T07:06:33.079Z,18.59
2018-06-17T07:09:16.263Z,18.94
2018-06-17T07:11:46.130Z,19.18
2018-06-17T07:14:20.167Z,19.34
2018-06-17T07:17:00.793Z,19.38
2018-06-17T07:19:31.504Z,19.62
2018-06-17T07:22:01.699Z,19.81
2018-06-17T07:24:31.670Z,19.68
2018-06-17T07:30:00.608Z,19.70
2018-06-17T07:32:30.588Z,19.68
2018-06-17T07:35:00.513Z,19.58
2018-06-17T07:37:31.746Z,19.52
2018-06-17T07:40:18.895Z,19.53
2018-06-17T07:42:50.057Z,19.72
2018-06-17T07:45:20.266Z,19.96
2018-06-17T07:47:50.252Z,19.99
2018-06-17T07:50:33.445Z,20.14
2018-06-17T07:53:12.687Z,20.56
2018-06-17T07:55:43.396Z,20.88
2018-06-17T07:58:14.371Z,21.33
2018-06-17T08:00:44.566Z,21.53
2018-06-17T08:03:14.977Z,21.49
2018-06-17T08:05:44.910Z,21.47
2018-06-17T08:08:14.927Z,21.52
2018-06-17T08:10:45.461Z,21.54
2018-06-17T08:13:15.399Z,21.68
2018-06-17T08:15:45.813Z,21.35
2018-06-17T08:18:19.027Z,21.17
2018-06-17T08:20:49.981Z,21.16
2018-06-17T08:23:21.390Z,21.31
2018-06-17T08:25:54.382Z,21.23
2018-06-17T08:28:24.891Z,21.62
2018-06-17T08:30:55.153Z,22.04
2018-06-17T08:33:25.339Z,21.86
2018-06-17T08:35:55.730Z,21.63
2018-06-17T08:38:26.916Z,21.49
2018-06-17T08:40:59.927Z,21.58
2018-06-17T08:43:31.743Z,21.90
2018-06-17T08:46:04.995Z,22.10
2018-06-17T08:48:35.040Z,22.31
2018-06-17T08:51:05.964Z,22.26
2018-06-17T08:53:40.105Z,22.30
2018-06-17T08:56:10.112Z,22.37
2018-06-17T08:58:40.703Z,22.32
2018-06-17T09:01:11.093Z,22.58
2018-06-17T09:03:42.272Z,23.31
2018-06-17T09:06:12.616Z,23.43
2018-06-17T09:08:44.271Z,23.75
2018-06-17T09:11:16.136Z,23.78
2018-06-17T09:13:46.705Z,23.47
2018-06-17T09:16:17.469Z,23.11
2018-06-17T09:18:48.387Z,23.04
2018-06-17T09:21:18.714Z,23.49
2018-06-17T09:23:49.494Z,24.37
2018-06-17T09:26:19.623Z,25.11
2018-06-17T09:28:50.046Z,26.16
2018-06-17T09:31:20.811Z,25.80
2018-06-17T09:33:50.736Z,25.94
2018-06-17T09:36:21.070Z,26.16
2018-06-17T09:38:51.089Z,26.06
2018-06-17T09:41:20.984Z,25.22
2018-06-17T09:43:51.372Z,24.70
2018-06-17T09:46:21.398Z,24.19
2018-06-17T09:48:51.346Z,23.75
2018-06-17T09:51:22.451Z,24.27
2018-06-17T09:53:54.766Z,25.07
2018-06-17T09:56:24.884Z,26.62
2018-06-17T09:58:55.200Z,27.79
2018-06-17T10:01:25.840Z,28.36
2018-06-17T10:03:55.839Z,29.40
2018-06-17T10:06:25.895Z,29.13
2018-06-17T10:08:55.877Z,27.98
2018-06-17T10:11:28.313Z,27.74
2018-06-17T10:13:58.302Z,28.01
2018-06-17T10:16:28.191Z,28.37
2018-06-17T10:18:58.395Z,29.27
2018-06-17T10:21:28.280Z,29.51
2018-06-17T10:23:58.800Z,30.28
2018-06-17T10:26:33.132Z,30.04
2018-06-17T10:29:03.137Z,30.50
2018-06-17T10:31:33.277Z,29.82
2018-06-17T10:34:03.745Z,28.89
2018-06-17T10:36:33.972Z,28.31
2018-06-17T10:39:04.137Z,26.98
2018-06-17T10:41:34.566Z,25.54
2018-06-17T10:44:04.679Z,25.72
2018-06-17T10:46:34.658Z,26.60
2018-06-17T10:49:07.083Z,27.47
2018-06-17T10:51:38.479Z,28.25
2018-06-17T10:54:08.670Z,28.52
2018-06-17T10:56:38.916Z,27.70
2018-06-17T10:59:09.138Z,27.78
2018-06-17T11:01:40.551Z,28.00
2018-06-17T11:04:10.850Z,27.84
2018-06-17T11:06:41.023Z,27.29
2018-06-17T11:09:11.453Z,26.19
2018-06-17T11:11:41.572Z,25.50
2018-06-17T11:14:11.950Z,24.99
2018-06-17T11:16:42.294Z,24.46
2018-06-17T11:19:13.058Z,24.11
2018-06-17T11:21:43.440Z,23.76
2018-06-17T11:24:17.549Z,23.85
2018-06-17T11:26:47.891Z,23.65
2018-06-17T11:29:17.813Z,23.50
2018-06-17T11:31:48.178Z,23.79
2018-06-17T11:34:18.070Z,24.41
2018-06-17T11:36:48.362Z,25.42
2018-06-17T11:39:18.790Z,26.11
2018-06-17T11:41:49.915Z,27.00
2018-06-17T11:44:20.052Z,27.23
2018-06-17T11:46:51.237Z,26.28
2018-06-17T11:49:21.107Z,25.45
2018-06-17T11:51:50.996Z,24.54
2018-06-17T11:54:26.675Z,23.85
2018-06-17T11:56:56.681Z,23.69
2018-06-17T11:59:27.107Z,23.76
2018-06-17T12:01:57.435Z,24.03
2018-06-17T12:04:27.510Z,24.09
2018-06-17T12:06:57.428Z,24.35
2018-06-17T12:09:31.792Z,24.53
2018-06-17T12:12:01.809Z,24.78
2018-06-17T12:14:31.672Z,24.83
2018-06-17T12:17:02.157Z,25.41
2018-06-17T12:19:32.029Z,25.71
2018-06-17T12:22:01.940Z,25.90
2018-06-17T12:24:32.194Z,25.88
2018-06-17T12:27:02.159Z,25.40
2018-06-17T12:29:32.275Z,25.25
2018-06-17T12:32:12.801Z,25.64
2018-06-17T12:34:42.766Z,26.39
2018-06-17T12:37:12.672Z,26.06
2018-06-17T12:39:43.094Z,25.47
2018-06-17T12:42:14.023Z,24.81
2018-06-17T12:44:44.904Z,23.97
2018-06-17T12:47:15.106Z,23.72
2018-06-17T12:49:45.325Z,24.03
2018-06-17T12:52:15.237Z,24.46
2018-06-17T12:54:45.615Z,24.52
2018-06-17T12:57:15.589Z,24.36
2018-06-17T12:59:45.559Z,24.38
2018-06-17T13:02:15.725Z,24.30
2018-06-17T13:04:45.848Z,24.11
2018-06-17T13:07:15.792Z,24.05
2018-06-17T13:09:46.219Z,24.09
2018-06-17T13:12:16.396Z,24.69
2018-06-17T13:14:46.438Z,26.01
2018-06-17T13:17:18.769Z,28.53
2018-06-17T13:19:49.140Z,29.91
2018-06-17T13:22:19.180Z,29.83
2018-06-17T13:24:49.365Z,28.94
2018-06-17T13:27:19.623Z,27.95
2018-06-17T13:29:49.729Z,26.92
2018-06-17T13:32:21.928Z,26.53
2018-06-17T13:34:51.982Z,25.89
2018-06-17T13:37:22.359Z,25.40
2018-06-17T13:39:52.787Z,25.20
2018-06-17T13:42:22.911Z,24.86
2018-06-17T13:44:52.886Z,25.11
2018-06-17T13:47:23.241Z,24.88
2018-06-17T13:49:53.166Z,24.69
2018-06-17T13:52:23.945Z,24.90
2018-06-17T13:54:55.789Z,25.28
2018-06-17T13:57:25.964Z,25.80
2018-06-17T13:59:56.053Z,27.72
2018-06-17T14:02:26.360Z,28.38
2018-06-17T14:04:56.310Z,29.49
2018-06-17T14:07:26.278Z,31.90
2018-06-17T14:09:57.786Z,33.40
2018-06-17T14:12:27.772Z,34.85
2018-06-17T14:14:57.826Z,33.94
2018-06-17T14:17:29.019Z,31.50
2018-06-17T14:19:58.984Z,29.05
2018-06-17T14:22:29.731Z,27.58
2018-06-17T14:24:59.939Z,25.50
2018-06-17T14:27:30.381Z,24.89
2018-06-17T14:30:00.434Z,24.59
2018-06-17T14:32:30.316Z,24.34
2018-06-17T14:35:00.213Z,24.60
2018-06-17T14:37:32.819Z,24.58
2018-06-17T14:40:03.082Z,25.07
2018-06-17T14:42:38.074Z,25.87
2018-06-17T14:45:15.253Z,25.96
2018-06-17T14:47:50.272Z,25.14
2018-06-17T14:50:26.480Z,24.46
2018-06-17T14:53:01.389Z,24.13
2018-06-17T14:55:31.606Z,23.87
2018-06-17T14:58:01.567Z,23.61
2018-06-17T15:00:31.521Z,23.41
2018-06-17T15:03:03.024Z,23.27
2018-06-17T15:05:33.309Z,23.13
2018-06-17T15:08:03.279Z,23.08
2018-06-17T15:10:33.398Z,23.13
2018-06-17T15:13:03.460Z,22.89
2018-06-17T15:15:35.980Z,23.08
2018-06-17T15:18:06.342Z,23.07
2018-06-17T15:20:41.001Z,22.93
2018-06-17T15:23:19.084Z,22.86
2018-06-17T15:25:50.481Z,22.86
2018-06-17T15:28:20.617Z,22.93
2018-06-17T15:30:51.713Z,22.86
2018-06-17T15:33:26.867Z,22.72
2018-06-17T15:36:02.180Z,22.78
2018-06-17T15:38:38.168Z,22.53
2018-06-17T15:41:13.785Z,22.62
2018-06-17T15:43:44.922Z,22.31
2018-06-17T15:46:16.410Z,22.28
2018-06-17T15:48:47.028Z,22.22
2018-06-17T15:51:18.831Z,22.16
2018-06-17T15:53:56.253Z,22.12
2018-06-17T15:56:33.559Z,22.15
2018-06-17T15:59:13.772Z,21.99
2018-06-17T16:01:44.046Z,22.12
2018-06-17T16:04:14.267Z,22.08
2018-06-17T16:06:45.635Z,22.05
2018-06-17T16:09:15.643Z,22.12
2018-06-17T16:11:52.413Z,22.05
2018-06-17T16:14:27.429Z,22.12
2018-06-17T16:17:09.999Z,22.13
2018-06-17T16:19:45.170Z,22.10
2018-06-17T16:22:26.860Z,21.30
2018-06-17T16:24:56.835Z,22.22
2018-06-17T16:27:27.013Z,22.18
2018-06-17T16:29:57.864Z,22.01
2018-06-17T16:32:28.231Z,21.96
2018-06-17T16:35:22.898Z,21.99
2018-06-17T16:37:53.727Z,21.97
2018-06-17T16:40:24.147Z,22.01
2018-06-17T16:42:55.139Z,21.90
2018-06-17T16:45:25.466Z,21.97
2018-06-17T16:47:56.096Z,22.00
2018-06-17T16:50:26.370Z,22.00
2018-06-17T16:53:01.198Z,21.88
2018-06-17T16:55:36.645Z,21.79
2018-06-17T16:58:12.283Z,21.95
2018-06-17T17:00:43.644Z,21.84
2018-06-17T17:03:21.155Z,21.83
2018-06-17T17:05:58.445Z,21.82
2018-06-17T17:08:28.545Z,21.88
2018-06-17T17:11:06.949Z,21.82
2018-06-17T17:13:37.753Z,21.88
2018-06-17T17:16:08.994Z,21.81
2018-06-17T17:18:40.810Z,21.66
2018-06-17T17:21:11.576Z,21.65
2018-06-17T17:23:42.008Z,21.61
2018-06-17T17:26:12.046Z,21.58
2018-06-17T17:28:42.418Z,21.50
2018-06-17T17:31:12.542Z,21.36
2018-06-17T17:33:47.670Z,21.43
2018-06-17T17:36:24.857Z,21.28
2018-06-17T17:39:01.051Z,21.20
2018-06-17T17:41:32.019Z,21.19
2018-06-17T17:44:02.892Z,21.11
2018-06-17T17:46:38.487Z,21.05
2018-06-17T17:49:08.605Z,21.22
2018-06-17T17:51:43.091Z,21.27
2018-06-17T17:54:18.655Z,21.04
2018-06-17T18:00:05.495Z,20.98
2018-06-17T18:02:37.214Z,20.88
2018-06-17T18:05:07.429Z,20.87
2018-06-17T18:07:38.067Z,20.88
2018-06-17T18:10:09.413Z,20.83
2018-06-17T18:12:39.547Z,20.74
2018-06-17T18:18:18.776Z,20.63
2018-06-17T18:20:52.343Z,20.74
2018-06-17T18:23:24.319Z,20.63
2018-06-17T18:28:02.491Z,20.53
2018-06-17T18:30:44.432Z,20.52
2018-06-17T18:33:19.828Z,20.55
2018-06-17T18:35:55.352Z,20.54
2018-06-17T18:38:25.530Z,20.52
2018-06-17T18:40:56.160Z,20.48
2018-06-17T18:43:27.411Z,20.53
2018-06-17T18:45:57.739Z,20.50
2018-06-17T18:48:28.163Z,20.53
2018-06-17T18:50:58.276Z,20.41
2018-06-17T18:53:28.673Z,20.44
2018-06-17T18:56:04.666Z,20.37
2018-06-17T18:58:34.824Z,20.35
2018-06-17T19:01:05.180Z,20.40
2018-06-17T19:03:35.151Z,20.36
2018-06-17T19:06:05.066Z,20.30
2018-06-17T19:08:42.013Z,20.22
2018-06-17T19:11:16.996Z,20.21
2018-06-17T19:17:05.417Z,20.11
2018-06-17T19:19:40.638Z,20.04
2018-06-17T19:22:13.100Z,20.04
2018-06-17T19:24:44.066Z,20.05
2018-06-17T19:27:14.063Z,19.99
2018-06-17T19:29:45.555Z,19.93
2018-06-17T19:32:15.555Z,19.91
2018-06-17T19:34:45.761Z,19.97
2018-06-17T19:37:22.991Z,19.94
2018-06-17T19:39:54.812Z,19.88
2018-06-17T19:42:25.196Z,19.92
2018-06-17T19:44:55.484Z,19.86
2018-06-17T19:47:25.581Z,19.88
2018-06-17T19:50:01.363Z,19.78
2018-06-17T19:52:36.492Z,19.75
2018-06-17T19:55:12.280Z,19.71
2018-06-17T19:57:47.311Z,19.63
2018-06-17T20:00:29.941Z,19.62
2018-06-17T20:03:00.518Z,19.61
2018-06-17T20:05:30.373Z,19.53
2018-06-17T20:08:07.792Z,19.58
2018-06-17T20:10:38.968Z,19.50
2018-06-17T20:13:11.008Z,19.40
2018-06-17T20:15:42.992Z,19.30
2018-06-17T20:18:14.237Z,19.22
2018-06-17T20:24:54.059Z,19.07
2018-06-17T20:27:25.049Z,19.09
2018-06-17T20:29:58.963Z,19.05
2018-06-17T20:32:34.375Z,19.03
2018-06-17T20:35:24.471Z,18.99
2018-06-17T20:37:59.713Z,19.00
2018-06-17T20:40:35.161Z,18.99
2018-06-17T20:43:10.438Z,18.93
2018-06-17T20:45:44.177Z,18.89
2018-06-17T20:48:14.342Z,18.83
2018-06-17T20:50:44.429Z,18.86
2018-06-17T20:53:15.823Z,18.76
2018-06-17T20:55:47.351Z,18.64
2018-06-17T20:58:19.431Z,18.52
2018-06-17T21:00:50.065Z,18.46
2018-06-17T21:03:20.568Z,18.33
2018-06-17T21:05:51.011Z,18.21
2018-06-17T21:08:22.465Z,18.13
2018-06-17T21:10:54.218Z,17.94
2018-06-17T21:13:24.757Z,17.90
2018-06-17T21:15:54.906Z,17.84
2018-06-17T21:18:30.217Z,17.72
2018-06-17T21:21:05.838Z,17.67
2018-06-17T21:23:40.697Z,17.55
2018-06-17T21:26:16.090Z,17.47
2018-06-17T21:28:46.052Z,17.42
2018-06-17T21:31:16.148Z,17.34
2018-06-17T21:33:46.332Z,17.33
2018-06-17T21:36:16.268Z,17.30
2018-06-17T21:38:46.774Z,17.17
2018-06-17T21:41:17.001Z,17.18
2018-06-17T21:43:48.056Z,17.18
2018-06-17T21:46:20.219Z,17.09
2018-06-17T21:48:52.277Z,17.12
2018-06-17T21:51:24.102Z,17.11
2018-06-17T21:53:54.396Z,17.08
2018-06-17T21:56:24.606Z,17.04
2018-06-17T21:58:55.427Z,17.12
2018-06-17T22:01:25.493Z,17.05
2018-06-17T22:03:59.452Z,17.06
2018-06-17T22:06:37.583Z,17.12
2018-06-17T22:12:07.411Z,17.06
2018-06-17T22:14:42.557Z,16.93
2018-06-17T22:17:20.389Z,16.92
2018-06-17T22:19:50.922Z,16.86
2018-06-17T22:23:43.015Z,16.76
2018-06-17T22:26:13.223Z,16.63
2018-06-17T22:28:43.664Z,16.33
2018-06-17T22:31:14.003Z,16.52
2018-06-17T22:33:45.238Z,16.53
2018-06-17T22:36:15.677Z,16.51
2018-06-17T22:38:46.295Z,16.47
2018-06-17T22:41:19.476Z,16.46
2018-06-17T22:43:49.796Z,16.42
2018-06-17T22:46:19.927Z,16.38
2018-06-17T22:48:49.919Z,16.29
2018-06-17T22:51:21.387Z,16.28
2018-06-17T22:54:01.961Z,16.26
2018-06-17T22:56:37.346Z,16.19
2018-06-17T22:59:12.337Z,16.18
2018-06-17T23:01:47.381Z,16.10
2018-06-17T23:04:23.936Z,16.09
2018-06-17T23:06:58.877Z,16.10
2018-06-17T23:09:34.446Z,16.07
2018-06-17T23:12:04.570Z,16.12
2018-06-17T23:14:34.738Z,16.10
2018-06-17T23:17:09.170Z,16.06
2018-06-17T23:19:39.483Z,16.01
2018-06-17T23:22:09.896Z,15.99
2018-06-17T23:24:39.893Z,16.05
2018-06-17T23:27:09.770Z,15.98
2018-06-17T23:29:41.238Z,15.98
2018-06-17T23:32:11.255Z,15.98
2018-06-17T23:34:41.205Z,15.95
2018-06-17T23:37:11.133Z,15.84
2018-06-17T23:39:41.398Z,15.91
2018-06-17T23:42:11.710Z,15.91
2018-06-17T23:44:41.589Z,15.91
2018-06-17T23:47:16.414Z,15.91
2018-06-17T23:49:51.294Z,15.96
2018-06-17T23:52:30.420Z,15.99
2018-06-17T23:55:05.470Z,16.06
2018-06-17T23:57:35.406Z,16.00
